Terminal Aerodrome Forecast
Issued by NWS

Home | Current Version | Previous Version | Text Only | Print | Product List | Glossary On
Versions: 1 2 3 4 5 6 7 8 9 10 11 12 13 14 15 16 17 18 19 20 21 22 23 24 25
000
FTUS41 KRLX 010000 CCA
TAFCKB
TAF COR
KCKB 010000Z 0100/0124 32004KT 6SM -RA BKN006 OVC024
      TEMPO 0100/0103 BKN013 OVC024
     FM010300 00000KT 2SM -SHRA BR OVC007
      TEMPO 0103/0106 3SM -SHRA OVC013
     FM010700 36008KT 3SM -SHRA BR OVC009
     FM011300 01008KT 5SM -SHRA BR OVC015
     FM011700 36009G15KT P6SM OVC020
     FM012200 34011G18KT P6SM OVC015=

USA.gov is the U.S. government's official web portal to all federal, state and local government web resources and services.